createdAt,value
2023-05-08T00:00:42.099Z,100910.75
2023-05-08T00:03:45.088Z,100904.69
2023-05-08T00:06:48.410Z,100887.63
2023-05-08T00:09:51.209Z,100877.47
2023-05-08T00:12:53.804Z,100872.31
2023-05-08T00:15:56.282Z,100872.28
2023-05-08T00:18:59.694Z,100900.38
2023-05-08T00:22:02.196Z,100875.75
2023-05-08T00:25:05.824Z,100863.41
2023-05-08T00:28:08.283Z,100888.84
2023-05-08T00:31:11.876Z,100896.75
2023-05-08T00:34:14.299Z,100872.13
2023-05-08T00:37:17.262Z,100885.69
2023-05-08T00:40:19.826Z,100882.63
2023-05-08T00:43:25.872Z,100866.56
2023-05-08T00:46:28.519Z,100881.09
2023-05-08T00:49:31.396Z,100902.44
2023-05-08T00:52:34.280Z,100867.66
2023-05-08T00:55:37.833Z,100894.91
2023-05-08T00:58:41.967Z,100871.13
2023-05-08T01:01:45.096Z,100898.34
2023-05-08T01:04:48.517Z,100888.13
2023-05-08T01:07:51.254Z,100867.81
2023-05-08T01:11:28.892Z,100876.44
2023-05-08T01:14:52.370Z,100917.38
2023-05-08T01:18:17.299Z,100886.81
2023-05-08T01:21:43.341Z,100903.78
2023-05-08T01:24:48.893Z,100916.50
2023-05-08T01:28:32.374Z,100914.81
2023-05-08T01:32:14.183Z,100928.50
2023-05-08T01:35:41.570Z,100934.44
2023-05-08T01:38:56.107Z,100922.53
2023-05-08T01:42:28.984Z,100926.97
2023-05-08T01:45:35.959Z,100911.84
2023-05-08T01:49:12.618Z,100947.03
2023-05-08T01:52:21.400Z,100923.19
2023-05-08T01:55:34.459Z,100935.09
2023-05-08T01:58:39.241Z,100913.00
2023-05-08T02:01:44.976Z,100939.56
2023-05-08T02:04:49.496Z,100938.69
2023-05-08T02:07:52.864Z,100928.53
2023-05-08T02:10:56.994Z,100917.53
2023-05-08T02:14:01.740Z,100918.28
2023-05-08T02:17:06.407Z,100950.84
2023-05-08T02:20:14.870Z,100953.41
2023-05-08T02:23:19.484Z,100927.84
2023-05-08T02:26:23.404Z,100936.31
2023-05-08T02:29:26.394Z,100950.06
2023-05-08T02:32:30.693Z,100948.31
2023-05-08T02:35:34.043Z,100923.47
2023-05-08T02:38:41.401Z,100935.53
2023-05-08T02:41:44.595Z,100940.69
2023-05-08T02:44:47.246Z,100916.97
2023-05-08T02:48:12.230Z,100943.28
2023-05-08T02:51:23.824Z,100945.88
2023-05-08T02:54:46.189Z,100913.38
2023-05-08T02:58:24.669Z,100939.75
2023-05-08T03:01:36.280Z,100928.81
2023-05-08T03:04:51.532Z,100943.41
2023-05-08T03:07:57.483Z,100942.53
2023-05-08T03:11:07.875Z,100909.38
2023-05-08T03:14:12.700Z,100911.91
2023-05-08T03:17:18.994Z,100917.88
2023-05-08T03:20:24.937Z,100903.41
2023-05-08T03:23:30.605Z,100883.88
2023-05-08T03:26:33.287Z,100917.81
2023-05-08T03:29:38.452Z,100924.53
2023-05-08T03:32:42.513Z,100910.91
2023-05-08T03:35:46.393Z,100923.63
2023-05-08T03:38:49.223Z,100925.28
2023-05-08T03:41:52.124Z,100887.75
2023-05-08T03:44:54.887Z,100912.38
2023-05-08T03:48:00.240Z,100898.69
2023-05-08T03:51:04.389Z,100923.38
2023-05-08T03:54:08.582Z,100931.91
2023-05-08T03:57:11.674Z,100905.41
2023-05-08T04:00:54.010Z,100935.09
2023-05-08T04:04:18.907Z,100934.97
2023-05-08T04:07:31.194Z,100938.44
2023-05-08T04:10:46.417Z,100916.84
2023-05-08T04:13:54.177Z,100901.56
2023-05-08T04:17:02.990Z,100915.19
2023-05-08T04:20:08.976Z,100931.16
2023-05-08T04:23:17.172Z,100919.81
2023-05-08T04:26:20.250Z,100903.53
2023-05-08T04:29:24.848Z,100900.06
2023-05-08T04:32:28.964Z,100931.38
2023-05-08T04:35:33.938Z,100905.88
2023-05-08T04:38:37.817Z,100941.97
2023-05-08T04:41:41.273Z,100964.66
2023-05-08T04:44:43.778Z,100930.41
2023-05-08T04:47:46.443Z,100969.56
2023-05-08T04:50:48.877Z,100945.25
2023-05-08T04:53:51.448Z,100936.91
2023-05-08T04:56:54.233Z,100969.91
2023-05-08T04:59:56.682Z,100974.03
2023-05-08T05:03:00.070Z,100972.94
2023-05-08T05:06:02.663Z,100958.56
2023-05-08T05:09:05.431Z,100948.81
2023-05-08T05:12:08.704Z,100991.44
2023-05-08T05:15:11.993Z,100968.19
2023-05-08T05:18:15.880Z,100973.97
2023-05-08T05:21:18.983Z,100956.88
2023-05-08T05:24:22.229Z,100976.97
2023-05-08T05:27:24.791Z,100973.38
2023-05-08T05:30:28.034Z,100983.19
2023-05-08T05:33:30.562Z,100988.41
2023-05-08T05:36:33.095Z,100999.94
2023-05-08T05:39:37.789Z,101002.84
2023-05-08T05:42:41.217Z,100998.66
2023-05-08T05:45:43.837Z,100999.84
2023-05-08T05:48:46.284Z,101004.19
2023-05-08T05:51:49.228Z,101004.22
2023-05-08T05:54:52.578Z,101011.31
2023-05-08T05:57:55.831Z,100996.88
2023-05-08T06:01:01.082Z,101035.25
2023-05-08T06:04:04.478Z,101041.34
2023-05-08T06:07:07.041Z,100998.31
2023-05-08T06:10:09.869Z,101028.44
2023-05-08T06:13:13.008Z,101046.66
2023-05-08T06:16:16.175Z,101051.56
2023-05-08T06:19:18.686Z,101012.16
2023-05-08T06:22:24.422Z,101050.03
2023-05-08T06:25:28.220Z,101050.63
2023-05-08T06:28:30.946Z,101048.75
2023-05-08T06:31:33.561Z,101058.44
2023-05-08T06:34:36.081Z,101034.09
2023-05-08T06:37:38.582Z,101039.78
2023-05-08T06:40:44.858Z,101040.97
2023-05-08T06:43:47.371Z,101051.28
2023-05-08T06:46:49.912Z,101024.91
2023-05-08T06:49:54.025Z,101041.88
2023-05-08T06:52:56.526Z,101018.78
2023-05-08T06:55:59.280Z,101048.72
2023-05-08T06:59:08.285Z,101051.44
2023-05-08T07:02:12.519Z,101057.31
2023-05-08T07:05:15.614Z,101038.84
2023-05-08T07:08:18.229Z,101041.47
2023-05-08T07:11:20.785Z,101067.44
2023-05-08T07:14:23.253Z,101051.47
2023-05-08T07:17:25.740Z,101055.25
2023-05-08T07:20:28.416Z,101061.84
2023-05-08T07:23:31.657Z,101072.19
2023-05-08T07:26:34.110Z,101057.28
2023-05-08T07:29:36.668Z,101078.81
2023-05-08T07:32:39.506Z,101055.91
2023-05-08T07:35:42.306Z,101058.41
2023-05-08T07:38:45.668Z,101106.66
2023-05-08T07:41:49.921Z,101079.66
2023-05-08T07:44:55.186Z,101110.22
2023-05-08T07:47:59.024Z,101098.69
2023-05-08T07:51:01.620Z,101098.81
2023-05-08T07:54:04.120Z,101094.38
2023-05-08T07:57:06.635Z,101099.59
2023-05-08T08:00:14.668Z,101092.09
2023-05-08T08:03:17.460Z,101103.47
2023-05-08T08:06:20.597Z,101070.03
2023-05-08T08:09:23.061Z,101104.34
2023-05-08T08:12:25.796Z,101092.47
2023-05-08T08:15:28.960Z,101113.47
2023-05-08T08:18:35.689Z,101135.19
2023-05-08T08:21:47.177Z,101111.25
2023-05-08T08:24:49.684Z,101141.69
2023-05-08T08:27:52.129Z,101111.00
2023-05-08T08:30:54.627Z,101126.56
2023-05-08T08:33:57.579Z,101128.22
2023-05-08T08:37:00.060Z,101088.22
2023-05-08T08:40:02.576Z,101110.59
2023-05-08T08:43:05.857Z,101119.56
2023-05-08T08:46:14.626Z,101101.97
2023-05-08T08:49:31.874Z,101110.47
2023-05-08T08:52:49.340Z,101124.91
2023-05-08T08:55:55.759Z,101122.28
2023-05-08T08:59:00.289Z,101092.50
2023-05-08T09:02:11.723Z,101119.63
2023-05-08T09:05:14.629Z,101137.78
2023-05-08T09:08:18.797Z,101137.66
2023-05-08T09:11:21.543Z,101128.41
2023-05-08T09:14:26.737Z,101124.19
2023-05-08T09:17:29.490Z,101134.59
2023-05-08T09:20:32.080Z,101145.72
2023-05-08T09:23:37.381Z,101113.91
2023-05-08T09:26:41.506Z,101152.53
2023-05-08T09:29:59.579Z,101133.81
2023-05-08T09:33:02.949Z,101147.28
2023-05-08T09:36:05.929Z,101150.41
2023-05-08T09:39:12.706Z,101129.75
2023-05-08T09:42:15.553Z,101140.66
2023-05-08T09:45:32.315Z,101126.94
2023-05-08T09:48:38.516Z,101133.81
2023-05-08T09:51:53.116Z,101132.94
2023-05-08T09:55:03.395Z,101146.25
2023-05-08T09:58:05.782Z,101128.53
2023-05-08T10:01:27.338Z,101116.25
2023-05-08T10:04:37.256Z,101139.28
2023-05-08T10:07:39.672Z,101123.13
2023-05-08T10:10:42.789Z,101146.44
2023-05-08T10:13:46.451Z,101150.88
2023-05-08T10:16:52.784Z,101136.34
2023-05-08T10:20:00.372Z,101129.31
2023-05-08T10:23:04.201Z,101138.75
2023-05-08T10:26:12.783Z,101123.06
2023-05-08T10:29:25.169Z,101151.03
2023-05-08T10:32:31.572Z,101146.91
2023-05-08T10:35:34.778Z,101150.94
2023-05-08T10:38:38.193Z,101145.13
2023-05-08T10:41:41.667Z,101157.31
2023-05-08T10:44:44.657Z,101120.81
2023-05-08T10:48:34.450Z,101139.28
2023-05-08T10:52:21.511Z,101131.22
2023-05-08T10:55:31.831Z,101110.50
2023-05-08T10:58:37.271Z,101118.03
2023-05-08T11:01:39.905Z,101102.28
2023-05-08T11:04:43.927Z,101099.28
2023-05-08T11:07:56.869Z,101120.06
2023-05-08T11:11:02.145Z,101116.63
2023-05-08T11:14:07.467Z,101106.75
2023-05-08T11:17:10.582Z,101094.53
2023-05-08T11:20:13.312Z,101061.31
2023-05-08T11:23:29.639Z,101071.28
2023-05-08T11:26:41.131Z,101077.94
2023-05-08T11:29:45.105Z,101089.69
2023-05-08T11:33:18.981Z,101082.63
2023-05-08T11:36:23.005Z,101082.97
2023-05-08T11:40:22.687Z,101104.63
2023-05-08T11:43:34.099Z,101107.50
2023-05-08T11:47:03.626Z,101111.34
2023-05-08T11:50:07.680Z,101073.81
2023-05-08T11:53:10.133Z,101101.50
2023-05-08T11:56:12.796Z,101104.16
2023-05-08T11:59:15.784Z,101104.72
2023-05-08T12:02:18.558Z,101083.00
2023-05-08T12:05:27.511Z,101108.47
2023-05-08T12:08:30.079Z,101116.88
2023-05-08T12:11:32.824Z,101095.34
2023-05-08T12:14:35.237Z,101107.59
2023-05-08T12:17:38.301Z,101099.69
2023-05-08T12:20:40.965Z,101085.38
2023-05-08T12:23:43.968Z,101088.34
2023-05-08T12:26:46.448Z,101109.84
2023-05-08T12:29:48.837Z,101078.28
2023-05-08T12:32:51.411Z,101072.84
2023-05-08T12:35:54.668Z,101068.03
2023-05-08T12:39:16.316Z,101083.63
2023-05-08T12:42:18.663Z,101085.44
2023-05-08T12:45:24.213Z,101104.84
2023-05-08T12:48:26.867Z,101100.09
2023-05-08T12:51:31.086Z,101124.66
2023-05-08T12:54:34.788Z,101113.78
2023-05-08T12:57:37.182Z,101089.56
2023-05-08T13:00:44.805Z,101113.56
2023-05-08T13:04:01.779Z,101117.41
2023-05-08T13:07:05.490Z,101097.56
2023-05-08T13:10:08.932Z,101126.13
2023-05-08T13:13:11.570Z,101138.88
2023-05-08T13:16:14.037Z,101125.59
2023-05-08T13:19:16.767Z,101121.69
2023-05-08T13:22:22.992Z,101122.53
2023-05-08T13:25:25.408Z,101128.44
2023-05-08T13:28:27.827Z,101127.28
2023-05-08T13:31:30.745Z,101121.13
2023-05-08T13:34:33.468Z,101114.88
2023-05-08T13:37:36.474Z,101109.13
2023-05-08T13:40:39.116Z,101129.94
2023-05-08T13:43:42.479Z,101136.63
2023-05-08T13:46:44.850Z,101113.03
2023-05-08T13:49:48.021Z,101120.28
2023-05-08T13:52:52.316Z,101121.56
2023-05-08T13:55:57.333Z,101133.59
2023-05-08T13:59:00.206Z,101137.22
2023-05-08T14:02:02.983Z,101124.78
2023-05-08T14:05:08.178Z,101147.19
2023-05-08T14:08:11.368Z,101108.38
2023-05-08T14:11:13.824Z,101129.91
2023-05-08T14:14:16.523Z,101112.63
2023-05-08T14:17:18.983Z,101135.59
2023-05-08T14:20:21.479Z,101156.34
2023-05-08T14:23:24.005Z,101129.91
2023-05-08T14:26:26.739Z,101156.84
2023-05-08T14:29:29.802Z,101092.19
2023-05-08T14:32:32.289Z,101175.13
2023-05-08T14:35:34.880Z,101177.81
2023-05-08T14:38:37.373Z,101173.94
2023-05-08T14:41:40.478Z,101181.09
2023-05-08T14:44:43.038Z,101167.59
2023-05-08T14:47:45.552Z,101169.53
2023-05-08T14:50:48.079Z,101197.38
2023-05-08T14:53:50.977Z,101176.66
2023-05-08T14:56:53.828Z,101184.94
2023-05-08T14:59:56.853Z,101208.13
2023-05-08T15:02:59.378Z,101204.75
2023-05-08T15:06:02.215Z,101205.50
2023-05-08T15:09:04.537Z,101184.00
2023-05-08T15:12:07.119Z,101177.94
2023-05-08T15:15:09.892Z,101125.50
2023-05-08T15:18:12.231Z,101175.91
2023-05-08T15:21:14.661Z,101146.28
2023-05-08T15:24:17.223Z,101200.41
2023-05-08T15:27:19.636Z,101171.44
2023-05-08T15:30:22.292Z,101177.09
2023-05-08T15:33:24.899Z,101197.22
2023-05-08T15:36:28.510Z,101205.53
2023-05-08T15:39:30.972Z,101206.25
2023-05-08T15:42:33.489Z,101205.81
2023-05-08T15:45:35.915Z,101183.31
2023-05-08T15:48:38.518Z,101192.22
2023-05-08T15:51:40.986Z,101198.03
2023-05-08T15:54:43.451Z,101178.72
2023-05-08T15:57:45.959Z,101188.78
2023-05-08T16:00:48.402Z,101192.19
2023-05-08T16:03:50.843Z,101200.47
2023-05-08T16:06:53.314Z,101206.69
2023-05-08T16:09:55.746Z,101209.63
2023-05-08T16:12:58.239Z,101200.19
2023-05-08T16:16:05.241Z,101197.50
2023-05-08T16:19:08.199Z,101176.34
2023-05-08T16:22:10.674Z,101164.16
2023-05-08T16:25:13.415Z,101191.16
2023-05-08T16:28:16.195Z,101188.88
2023-05-08T16:31:18.637Z,101194.72
2023-05-08T16:34:21.558Z,101178.09
2023-05-08T16:37:23.979Z,101170.09
2023-05-08T16:40:26.332Z,101184.09
2023-05-08T16:43:28.865Z,101184.53
2023-05-08T16:46:31.392Z,101160.34
2023-05-08T16:49:33.953Z,101225.19
2023-05-08T16:52:36.441Z,101230.47
2023-05-08T16:55:38.907Z,101196.25
2023-05-08T16:58:43.250Z,101232.47
2023-05-08T17:01:45.751Z,101204.63
2023-05-08T17:04:49.379Z,101246.97
2023-05-08T17:07:51.902Z,101246.28
2023-05-08T17:10:54.308Z,101225.25
2023-05-08T17:13:57.060Z,101221.34
2023-05-08T17:16:59.773Z,101239.31
2023-05-08T17:20:02.267Z,101220.38
2023-05-08T17:23:04.747Z,101222.25
2023-05-08T17:26:07.446Z,101221.59
2023-05-08T17:29:09.852Z,101256.81
2023-05-08T17:32:12.635Z,101218.28
2023-05-08T17:35:15.160Z,101232.47
2023-05-08T17:38:17.700Z,101235.94
2023-05-08T17:41:20.666Z,101251.66
2023-05-08T17:44:23.464Z,101272.75
2023-05-08T17:47:26.075Z,101253.59
2023-05-08T17:50:28.610Z,101278.41
2023-05-08T17:53:32.227Z,101260.31
2023-05-08T17:56:34.666Z,101285.31
2023-05-08T17:59:36.999Z,101239.78
2023-05-08T18:02:40.048Z,101264.47
2023-05-08T18:05:42.646Z,101273.25
2023-05-08T18:08:46.287Z,101290.16
2023-05-08T18:11:48.703Z,101278.84
2023-05-08T18:14:51.216Z,101288.13
2023-05-08T18:17:53.778Z,101267.59
2023-05-08T18:20:56.386Z,101297.75
2023-05-08T18:23:58.911Z,101286.91
2023-05-08T18:27:01.364Z,101281.22
2023-05-08T18:30:04.384Z,101278.72
2023-05-08T18:33:07.021Z,101313.47
2023-05-08T18:36:10.296Z,101318.41
2023-05-08T18:39:12.755Z,101279.00
2023-05-08T18:42:15.415Z,101311.59
2023-05-08T18:45:18.022Z,101289.06
2023-05-08T18:48:20.765Z,101305.41
2023-05-08T18:51:23.711Z,101306.81
2023-05-08T18:54:27.043Z,101313.97
2023-05-08T18:57:29.444Z,101340.53
2023-05-08T19:00:33.228Z,101332.44
2023-05-08T19:03:35.938Z,101324.81
2023-05-08T19:06:38.450Z,101335.03
2023-05-08T19:09:40.978Z,101327.56
2023-05-08T19:12:44.333Z,101313.91
2023-05-08T19:15:47.055Z,101344.84
2023-05-08T19:18:50.773Z,101345.72
2023-05-08T19:21:53.422Z,101349.34
2023-05-08T19:24:56.167Z,101312.56
2023-05-08T19:27:58.872Z,101344.25
2023-05-08T19:31:01.669Z,101322.06
2023-05-08T19:34:04.174Z,101328.88
2023-05-08T19:37:06.569Z,101339.97
2023-05-08T19:40:09.515Z,101340.34
2023-05-08T19:43:12.176Z,101340.22
2023-05-08T19:46:14.770Z,101330.88
2023-05-08T19:49:17.671Z,101333.72
2023-05-08T19:52:20.335Z,101328.78
2023-05-08T19:55:22.873Z,101323.50
2023-05-08T19:58:25.476Z,101331.91
2023-05-08T20:01:27.980Z,101299.47
2023-05-08T20:04:30.693Z,101300.56
2023-05-08T20:07:33.778Z,101310.19
2023-05-08T20:10:36.289Z,101299.16
2023-05-08T20:13:39.287Z,101306.13
2023-05-08T20:16:42.096Z,101300.13
2023-05-08T20:19:44.727Z,101326.38
2023-05-08T20:22:47.326Z,101321.25
2023-05-08T20:25:49.711Z,101324.00
2023-05-08T20:28:52.166Z,101313.69
2023-05-08T20:31:54.678Z,101329.16
2023-05-08T20:34:57.153Z,101336.31
2023-05-08T20:37:59.640Z,101333.75
2023-05-08T20:41:02.252Z,101347.59
2023-05-08T20:44:04.706Z,101339.81
2023-05-08T20:47:07.087Z,101344.22
2023-05-08T20:50:09.762Z,101343.44
2023-05-08T20:53:12.121Z,101322.31
2023-05-08T20:56:18.675Z,101355.53
2023-05-08T20:59:23.227Z,101321.94
2023-05-08T21:02:25.831Z,101342.94
2023-05-08T21:05:28.278Z,101346.41
2023-05-08T21:08:30.683Z,101350.63
2023-05-08T21:11:33.315Z,101310.44
2023-05-08T21:14:36.641Z,101317.53
2023-05-08T21:17:39.027Z,101329.56
2023-05-08T21:20:45.144Z,101321.13
2023-05-08T21:23:47.513Z,101344.16
2023-05-08T21:26:49.908Z,101291.25
2023-05-08T21:29:52.441Z,101339.19
2023-05-08T21:32:54.940Z,101331.31
2023-05-08T21:35:57.398Z,101306.59
2023-05-08T21:38:59.816Z,101327.13
2023-05-08T21:42:03.227Z,101284.72
2023-05-08T21:45:06.076Z,101295.59
2023-05-08T21:48:08.606Z,101294.88
2023-05-08T21:51:11.021Z,101326.78
2023-05-08T21:54:13.439Z,101295.09
2023-05-08T21:57:15.983Z,101302.00
2023-05-08T22:00:19.080Z,101290.94
2023-05-08T22:03:24.086Z,101319.56
2023-05-08T22:06:26.627Z,101329.91
2023-05-08T22:09:29.001Z,101293.00
2023-05-08T22:12:31.455Z,101283.72
2023-05-08T22:15:34.121Z,101319.81
2023-05-08T22:18:36.879Z,101311.19
2023-05-08T22:21:40.816Z,101285.66
2023-05-08T22:24:43.244Z,101288.22
2023-05-08T22:27:46.071Z,101316.50
2023-05-08T22:30:48.489Z,101256.06
2023-05-08T22:33:50.894Z,101282.38
2023-05-08T22:36:53.226Z,101304.72
2023-05-08T22:39:55.657Z,101320.84
2023-05-08T22:42:59.131Z,101307.09
2023-05-08T22:46:01.942Z,101275.59
2023-05-08T22:49:04.555Z,101272.16
2023-05-08T22:52:08.116Z,101261.88
2023-05-08T22:55:10.832Z,101239.66
2023-05-08T22:58:13.510Z,101288.66
2023-05-08T23:01:17.412Z,101259.44
2023-05-08T23:04:20.161Z,101270.75
2023-05-08T23:07:22.573Z,101275.09
2023-05-08T23:10:25.037Z,101297.06
2023-05-08T23:13:27.551Z,101282.66
2023-05-08T23:16:30.216Z,101291.97
2023-05-08T23:19:32.600Z,101270.59
2023-05-08T23:22:35.085Z,101287.66
2023-05-08T23:25:37.452Z,101294.41
2023-05-08T23:28:39.880Z,101293.50
2023-05-08T23:31:42.342Z,101270.50
2023-05-08T23:34:44.934Z,101269.94
2023-05-08T23:37:47.396Z,101290.63
2023-05-08T23:40:50.261Z,101286.97
2023-05-08T23:43:52.678Z,101291.19
2023-05-08T23:46:55.058Z,101287.00
2023-05-08T23:49:57.600Z,101253.78
2023-05-08T23:53:00.065Z,101287.09
2023-05-08T23:56:02.500Z,101249.44
2023-05-08T23:59:04.956Z,101283.56
